Terminal Aerodrome Forecast
Issued by NWS Milwaukee/Sullivan, WI

Home | Current Version | Previous Version | Text Only | Print | Product List | Glossary On
Versions: 1 2 3 4 5 6 7 8 9 10 11 12 13 14 15 16 17 18 19 20 21 22 23 24 25 26 27 28 29 30 31 32 33 34 35 36 37 38 39 40 41 42 43 44 45 46 47 48 49 50
000
FTUS43 KMKX 242348
TAFMKE
TAF
KMKE 242348Z 2500/2606 11003KT P6SM OVC013
      TEMPO 2503/2504 -RASN
     FM250400 11006KT P6SM -RASN OVC008
     FM251200 10010KT 2SM -RASN OVC008
     FM251400 10010KT 2SM -RA OVC003
     FM251600 10009KT P6SM VCSH OVC003
     FM251800 10007KT P6SM OVC003
     FM252000 32006KT 3SM -RA OVC003
     FM252300 30006KT 2SM -RASN OVC003
     FM260200 34008KT 2SM -SN OVC003
     FM260400 34010KT 2SM -SN OVC008=

USA.gov is the U.S. government's official web portal to all federal, state and local government web resources and services.